Time,TemperatureF,DewpointF,PressureIn,WindDirection,WindDirectionDegrees,WindSpeedMPH,WindSpeedGustMPH,Humidity,HourlyPrecipIn,Conditions,Clouds,dailyrainin,SoftwareType,DateUTC
2013-01-17 00:00:00,0.6,-4.1,30.32,NW,315,4.0,8.4,80,0.00,,CLR,0.00,VWS V14.01,2013-01-17 06:00:00,
2013-01-17 00:10:00,0.4,-4.3,30.32,NW,311,5.0,7.3,80,0.00,,CLR,0.00,VWS V14.01,2013-01-17 06:10:00,
2013-01-17 00:20:00,0.3,-4.4,30.32,NW,317,3.0,6.3,80,0.00,,CLR,0.00,VWS V14.01,2013-01-17 06:20:00,
2013-01-17 00:30:00,0.2,-4.5,30.33,NW,318,4.0,6.3,80,0.00,,CLR,0.00,VWS V14.01,2013-01-17 06:30:00,
2013-01-17 00:40:00,0.1,-4.7,30.33,NW,317,3.0,6.3,80,0.00,,CLR,0.00,VWS V14.01,2013-01-17 06:40:00,
2013-01-17 00:50:00,-0.3,-4.7,30.33,NW,317,1.0,5.2,81,0.00,,CLR,0.00,VWS V14.01,2013-01-17 06:50:00,
2013-01-17 01:00:00,-0.5,-4.7,30.34,NW,305,2.0,3.1,82,0.00,,CLR,0.00,VWS V14.01,2013-01-17 07:00:00,
2013-01-17 01:10:00,-0.6,-4.8,30.35,West,277,1.0,2.1,82,0.00,,CLR,0.00,VWS V14.01,2013-01-17 07:10:00,
2013-01-17 01:20:00,-0.8,-5.0,30.37,West,265,5.0,5.2,82,0.00,,CLR,0.00,VWS V14.01,2013-01-17 07:20:00,
2013-01-17 01:30:00,-0.9,-5.1,30.37,West,275,5.0,7.3,82,0.00,,CLR,0.00,VWS V14.01,2013-01-17 07:30:00,
2013-01-17 01:40:00,-0.9,-5.1,30.37,WNW,287,2.0,9.4,82,0.00,,CLR,0.00,VWS V14.01,2013-01-17 07:40:00,
2013-01-17 01:50:00,-1.0,-5.2,30.37,WNW,291,4.0,6.3,82,0.00,,CLR,0.00,VWS V14.01,2013-01-17 07:50:00,
2013-01-17 02:00:00,-1.1,-5.3,30.37,WNW,294,3.0,4.2,82,0.00,,CLR,0.00,VWS V14.01,2013-01-17 08:00:00,
2013-01-17 02:10:00,-1.1,-5.3,30.38,West,275,0.0,4.2,82,0.00,,CLR,0.00,VWS V14.01,2013-01-17 08:10:00,
2013-01-17 02:20:00,-1.1,-5.5,30.38,West,281,4.0,6.3,81,0.00,,CLR,0.00,VWS V14.01,2013-01-17 08:20:00,
2013-01-17 02:30:00,-1.3,-5.7,30.39,West,274,3.0,5.2,81,0.00,,CLR,0.00,VWS V14.01,2013-01-17 08:30:00,
2013-01-17 02:40:00,-1.1,-5.8,30.39,WNW,285,3.0,4.2,80,0.00,,CLR,0.00,VWS V14.01,2013-01-17 08:40:00,
2013-01-17 02:50:00,-1.2,-6.1,30.39,West,260,2.0,5.2,79,0.00,,CLR,0.00,VWS V14.01,2013-01-17 08:50:00,
2013-01-17 03:00:00,-1.3,-6.2,30.41,West,281,2.0,8.4,79,0.00,,CLR,0.00,VWS V14.01,2013-01-17 09:00:00,
2013-01-17 03:10:00,-1.4,-6.6,30.41,West,277,1.0,5.2,78,0.00,,CLR,0.00,VWS V14.01,2013-01-17 09:10:00,
2013-01-17 03:20:00,-1.4,-6.6,30.42,West,273,3.0,6.3,78,0.00,,CLR,0.00,VWS V14.01,2013-01-17 09:20:00,
2013-01-17 03:30:00,-1.2,-6.4,30.42,SSW,201,6.0,8.4,78,0.00,,CLR,0.00,VWS V14.01,2013-01-17 09:30:00,
2013-01-17 03:40:00,-0.5,-5.4,30.42,WNW,290,1.0,6.3,79,0.00,,CLR,0.00,VWS V14.01,2013-01-17 09:40:00,
2013-01-17 03:50:00,0.6,-4.4,30.42,West,270,5.0,6.3,79,0.00,,BKN031,0.00,VWS V14.01,2013-01-17 09:50:00,
2013-01-17 04:00:00,1.2,-4.1,30.41,West,269,5.0,11.5,78,0.00,,BKN031,0.00,VWS V14.01,2013-01-17 10:00:00,
2013-01-17 04:10:00,1.5,-3.8,30.40,NW,320,0.0,8.4,78,0.00,,OVC031,0.00,VWS V14.01,2013-01-17 10:10:00,
2013-01-17 04:20:00,1.9,-3.4,30.41,West,281,1.0,3.1,78,0.00,,OVC031,0.00,VWS V14.01,2013-01-17 10:20:00,
2013-01-17 04:30:00,2.3,-3.2,30.41,WSW,248,0.0,4.2,77,0.00,,OVC029,0.00,VWS V14.01,2013-01-17 10:30:00,
2013-01-17 04:40:00,2.5,-3.0,30.42,WNW,283,2.0,4.2,77,0.00,,OVC029,0.00,VWS V14.01,2013-01-17 10:40:00,
2013-01-17 04:50:00,2.6,-3.0,30.41,WNW,282,2.0,6.3,77,0.00,,OVC027,0.00,VWS V14.01,2013-01-17 10:50:00,
2013-01-17 05:00:00,2.7,-2.9,30.41,West,279,3.0,5.2,77,0.00,,OVC027,0.00,VWS V14.01,2013-01-17 11:00:00,
2013-01-17 05:10:00,2.7,-2.9,30.42,West,266,1.0,7.3,77,0.00,,OVC027,0.00,VWS V14.01,2013-01-17 11:10:00,
2013-01-17 05:20:00,2.9,-2.4,30.42,NW,313,1.0,5.2,78,0.00,,OVC027,0.00,VWS V14.01,2013-01-17 11:20:00,
2013-01-17 05:30:00,3.0,-2.3,30.42,SW,226,2.0,7.3,78,0.00,,OVC025,0.00,VWS V14.01,2013-01-17 11:30:00,
2013-01-17 05:40:00,3.2,-2.4,30.42,SW,234,3.0,9.4,77,0.00,,OVC025,0.00,VWS V14.01,2013-01-17 11:40:00,
2013-01-17 05:50:00,3.3,-2.5,30.42,SW,224,2.0,9.4,76,0.00,,OVC028,0.00,VWS V14.01,2013-01-17 11:50:00,
2013-01-17 06:00:00,3.5,-2.3,30.41,SW,221,7.0,8.4,76,0.00,,OVC028,0.00,VWS V14.01,2013-01-17 12:00:00,
2013-01-17 06:10:00,3.8,-2.6,30.41,SW,220,8.0,9.4,74,0.00,,OVC021,0.00,VWS V14.01,2013-01-17 12:10:00,
2013-01-17 06:20:00,4.1,-2.0,30.41,SW,228,6.0,9.4,75,0.00,,OVC021,0.00,VWS V14.01,2013-01-17 12:20:00,
2013-01-17 06:30:00,4.4,-2.0,30.41,SW,215,7.0,11.5,74,0.00,,OVC021,0.00,VWS V14.01,2013-01-17 12:30:00,
2013-01-17 06:40:00,4.6,-1.9,30.41,SW,234,8.0,11.5,74,0.00,,OVC021,0.00,VWS V14.01,2013-01-17 12:40:00,
2013-01-17 06:50:00,4.9,-1.3,30.41,SW,223,6.0,9.4,75,0.00,,OVC019,0.00,VWS V14.01,2013-01-17 12:50:00,
2013-01-17 07:00:00,5.2,-1.0,30.41,SW,215,8.0,10.5,75,0.00,,OVC019,0.00,VWS V14.01,2013-01-17 13:00:00,
2013-01-17 07:10:00,5.4,-0.8,30.40,SW,220,9.0,11.5,75,0.00,,OVC024,0.00,VWS V14.01,2013-01-17 13:10:00,
2013-01-17 07:20:00,5.7,-0.5,30.41,SW,219,8.0,11.5,75,0.00,,OVC024,0.00,VWS V14.01,2013-01-17 13:20:00,
2013-01-17 07:30:00,6.0,-0.5,30.40,SW,219,9.0,11.5,74,0.00,,OVC022,0.00,VWS V14.01,2013-01-17 13:30:00,
2013-01-17 07:40:00,6.1,-0.4,30.40,SW,215,9.0,11.5,74,0.00,,OVC022,0.00,VWS V14.01,2013-01-17 13:40:00,
2013-01-17 07:50:00,6.4,0.2,30.40,SSW,211,7.0,9.4,75,0.00,,OVC048,0.00,VWS V14.01,2013-01-17 13:50:00,
2013-01-17 08:00:00,6.6,-0.2,30.40,SW,219,7.0,9.4,73,0.00,,OVC048,0.00,VWS V14.01,2013-01-17 14:00:00,
2013-01-17 08:10:00,6.9,0.4,30.40,SSW,194,7.0,9.4,74,0.00,,OVC048,0.00,VWS V14.01,2013-01-17 14:10:00,
2013-01-17 08:20:00,7.2,0.7,30.41,SW,217,7.0,10.5,74,0.00,,OVC048,0.00,VWS V14.01,2013-01-17 14:20:00,
2013-01-17 08:30:00,7.4,1.1,30.41,South,185,7.0,8.4,75,0.00,,OVC048,0.00,VWS V14.01,2013-01-17 14:30:00,
2013-01-17 08:40:00,7.7,1.4,30.42,South,190,6.0,8.4,75,0.00,,OVC048,0.00,VWS V14.01,2013-01-17 14:40:00,
2013-01-17 08:50:00,8.1,1.8,30.42,SSW,198,4.0,8.4,75,0.00,,OVC049,0.00,VWS V14.01,2013-01-17 14:50:00,
2013-01-17 09:00:00,8.4,2.4,30.42,SSW,198,5.0,7.3,76,0.00,,OVC049,0.00,VWS V14.01,2013-01-17 15:00:00,
2013-01-17 09:10:00,8.8,3.1,30.43,SSW,209,7.0,7.3,77,0.00,,BKN047,0.00,VWS V14.01,2013-01-17 15:10:00,
2013-01-17 09:20:00,9.3,3.6,30.43,SSW,203,5.0,8.4,77,0.00,,BKN047,0.00,VWS V14.01,2013-01-17 15:20:00,
2013-01-17 09:30:00,9.7,4.0,30.44,SSW,205,7.0,8.4,77,0.00,,SCT047,0.00,VWS V14.01,2013-01-17 15:30:00,
2013-01-17 09:40:00,10.2,4.4,30.44,SSW,194,7.0,8.4,77,0.00,,SCT047,0.00,VWS V14.01,2013-01-17 15:40:00,
2013-01-17 09:50:00,10.6,4.5,30.45,SSW,202,8.0,9.4,76,0.00,,SCT021,0.00,VWS V14.01,2013-01-17 15:50:00,
2013-01-17 10:00:00,11.1,5.6,30.45,SSW,196,8.0,11.5,78,0.00,,SCT021,0.00,VWS V14.01,2013-01-17 16:00:00,
2013-01-17 10:10:00,11.3,5.2,30.45,SSW,209,7.0,10.5,76,0.00,,BKN021,0.00,VWS V14.01,2013-01-17 16:10:00,
2013-01-17 10:20:00,11.7,5.9,30.45,SW,215,7.0,10.5,77,0.00,,BKN021,0.00,VWS V14.01,2013-01-17 16:20:00,
2013-01-17 10:30:00,12.0,6.2,30.46,SSW,213,7.0,8.4,77,0.00,,SCT019,0.00,VWS V14.01,2013-01-17 16:30:00,
2013-01-17 10:40:00,12.4,6.6,30.46,SSW,206,7.0,10.5,77,0.00,,SCT019,0.00,VWS V14.01,2013-01-17 16:40:00,
2013-01-17 10:50:00,12.7,6.6,30.46,SSW,213,6.0,9.4,76,0.00,,BKN021,0.00,VWS V14.01,2013-01-17 16:50:00,
2013-01-17 11:00:00,13.5,7.4,30.46,SW,223,7.0,8.4,76,0.00,,BKN021,0.00,VWS V14.01,2013-01-17 17:00:00,
2013-01-17 11:10:00,13.9,8.0,30.45,SW,223,8.0,9.4,77,0.00,,OVC019,0.00,VWS V14.01,2013-01-17 17:10:00,
2013-01-17 11:20:00,14.5,8.6,30.45,SW,216,4.0,8.4,77,0.00,,OVC019,0.00,VWS V14.01,2013-01-17 17:20:00,
2013-01-17 11:30:00,15.2,9.3,30.45,WSW,248,3.0,8.4,77,0.00,,OVC017,0.00,VWS V14.01,2013-01-17 17:30:00,
2013-01-17 11:40:00,16.1,10.2,30.45,SW,214,6.0,7.3,77,0.00,,OVC017,0.00,VWS V14.01,2013-01-17 17:40:00,
2013-01-17 11:50:00,16.8,11.1,30.45,West,268,2.0,6.3,78,0.00,,OVC017,0.00,VWS V14.01,2013-01-17 17:50:00,
2013-01-17 12:00:00,17.7,12.6,30.45,WNW,289,4.0,5.2,80,0.00,,SCT017,0.00,VWS V14.01,2013-01-17 18:00:00,
2013-01-17 12:10:00,18.5,13.4,30.45,WSW,239,3.0,7.3,80,0.00,,CLR,0.00,VWS V14.01,2013-01-17 18:10:00,
2013-01-17 12:20:00,19.0,13.9,30.44,WNW,284,5.0,9.4,80,0.00,,CLR,0.00,VWS V14.01,2013-01-17 18:20:00,
2013-01-17 12:30:00,19.4,14.5,30.44,WNW,283,5.0,9.4,81,0.00,,CLR,0.00,VWS V14.01,2013-01-17 18:30:00,
2013-01-17 12:40:00,20.1,15.2,30.44,WNW,299,3.0,6.3,81,0.00,,CLR,0.00,VWS V14.01,2013-01-17 18:40:00,
2013-01-17 12:50:00,20.4,15.5,30.44,West,265,5.0,7.3,81,0.00,,CLR,0.00,VWS V14.01,2013-01-17 18:50:00,
2013-01-17 13:00:00,20.4,15.5,30.44,WNW,284,2.0,8.4,81,0.00,,CLR,0.00,VWS V14.01,2013-01-17 19:00:00,
2013-01-17 13:10:00,20.9,16.3,30.44,WNW,303,2.0,6.3,82,0.00,,CLR,0.00,VWS V14.01,2013-01-17 19:10:00,
2013-01-17 13:20:00,21.6,16.7,30.44,WNW,289,3.0,4.2,81,0.00,,CLR,0.00,VWS V14.01,2013-01-17 19:20:00,
2013-01-17 13:30:00,21.7,16.8,30.44,NW,312,3.0,5.2,81,0.00,,SCT019,0.00,VWS V14.01,2013-01-17 19:30:00,
2013-01-17 13:40:00,21.7,16.8,30.44,NW,307,3.0,6.3,81,0.00,,SCT019,0.00,VWS V14.01,2013-01-17 19:40:00,
2013-01-17 13:50:00,22.0,17.1,30.43,WNW,298,1.0,5.2,81,0.00,,CLR,0.00,VWS V14.01,2013-01-17 19:50:00,
2013-01-17 14:00:00,21.8,16.6,30.43,NW,314,4.0,10.5,80,0.00,,CLR,0.00,VWS V14.01,2013-01-17 20:00:00,
2013-01-17 14:10:00,21.8,17.2,30.43,WNW,301,2.0,6.3,82,0.00,,SCT021,0.00,VWS V14.01,2013-01-17 20:10:00,
2013-01-17 14:20:00,21.4,16.8,30.43,WNW,295,4.0,5.2,82,0.00,,SCT021,0.00,VWS V14.01,2013-01-17 20:20:00,
2013-01-17 14:30:00,21.0,16.7,30.44,NW,309,2.0,5.2,83,0.00,,SCT019,0.00,VWS V14.01,2013-01-17 20:30:00,
2013-01-17 14:40:00,20.7,16.1,30.44,WNW,301,3.0,7.3,82,0.00,,SCT019,0.00,VWS V14.01,2013-01-17 20:40:00,
2013-01-17 14:50:00,20.4,15.5,30.44,WNW,302,5.0,9.4,81,0.00,,SCT019,0.00,VWS V14.01,2013-01-17 20:50:00,
2013-01-17 15:00:00,20.2,15.9,30.44,NW,309,3.0,9.4,83,0.00,,SCT019,0.00,VWS V14.01,2013-01-17 21:00:00,
2013-01-17 15:10:00,19.7,14.8,30.44,WNW,292,6.0,11.5,81,0.00,,CLR,0.00,VWS V14.01,2013-01-17 21:10:00,
2013-01-17 15:20:00,19.3,14.4,30.44,NW,309,7.0,9.4,81,0.00,,CLR,0.00,VWS V14.01,2013-01-17 21:20:00,
2013-01-17 15:30:00,19.0,14.1,30.45,NW,311,6.0,10.5,81,0.00,,CLR,0.00,VWS V14.01,2013-01-17 21:30:00,
2013-01-17 15:40:00,18.8,13.9,30.44,NW,305,6.0,8.4,81,0.00,,CLR,0.00,VWS V14.01,2013-01-17 21:40:00,
2013-01-17 15:50:00,18.6,13.5,30.44,NW,307,7.0,8.4,80,0.00,,BKN100,0.00,VWS V14.01,2013-01-17 21:50:00,
2013-01-17 16:00:00,18.3,13.2,30.44,NW,308,5.0,9.4,80,0.00,,BKN100,0.00,VWS V14.01,2013-01-17 22:00:00,
2013-01-17 16:10:00,18.0,12.9,30.44,NW,317,3.0,7.3,80,0.00,,BKN100,0.00,VWS V14.01,2013-01-17 22:10:00,
2013-01-17 16:20:00,17.9,13.1,30.45,NW,306,5.0,6.3,81,0.00,,BKN100,0.00,VWS V14.01,2013-01-17 22:20:00,
2013-01-17 16:30:00,17.8,13.2,30.45,NW,313,2.0,5.2,82,0.00,,SCT100,0.00,VWS V14.01,2013-01-17 22:30:00,
2013-01-17 16:40:00,17.5,12.7,30.45,NW,306,0.0,6.3,81,0.00,,SCT100,0.00,VWS V14.01,2013-01-17 22:40:00,
2013-01-17 16:50:00,17.2,12.4,30.45,NW,323,5.0,6.3,81,0.00,,BKN090,0.00,VWS V14.01,2013-01-17 22:50:00,
2013-01-17 17:00:00,16.8,12.0,30.44,North,355,3.0,7.3,81,0.00,,BKN090,0.00,VWS V14.01,2013-01-17 23:00:00,
2013-01-17 17:10:00,16.6,10.9,30.44,NW,317,2.0,5.2,78,0.00,,OVC090,0.00,VWS V14.01,2013-01-17 23:10:00,
2013-01-17 17:20:00,16.5,11.1,30.45,NW,307,1.0,5.2,79,0.00,,OVC090,0.00,VWS V14.01,2013-01-17 23:20:00,
2013-01-17 17:30:00,16.4,11.6,30.45,NW,304,3.0,5.2,81,0.00,,OVC090,0.00,VWS V14.01,2013-01-17 23:30:00,
2013-01-17 17:40:00,16.3,10.9,30.45,NW,323,4.0,5.2,79,0.00,,OVC090,0.00,VWS V14.01,2013-01-17 23:40:00,
2013-01-17 17:50:00,16.1,10.5,30.44,NW,309,1.0,4.2,78,0.00,,OVC090,0.00,VWS V14.01,2013-01-17 23:50:00,
2013-01-17 18:00:00,15.9,10.3,30.44,NNW,329,0.0,3.1,78,0.00,,OVC090,0.00,VWS V14.01,2013-01-18 00:00:00,
2013-01-17 18:10:00,15.8,10.7,30.44,NW,321,0.0,4.2,80,0.00,,SCT090,0.00,VWS V14.01,2013-01-18 00:10:00,
2013-01-17 18:20:00,15.8,10.5,30.44,NW,321,0.0,3.1,79,0.00,,SCT090,0.00,VWS V14.01,2013-01-18 00:20:00,
2013-01-17 18:30:00,15.7,10.4,30.44,NW,321,0.0,2.1,79,0.00,,BKN080,0.00,VWS V14.01,2013-01-18 00:30:00,
2013-01-17 18:40:00,15.7,10.4,30.43,NW,321,0.0,0.0,79,0.00,,BKN080,0.00,VWS V14.01,2013-01-18 00:40:00,
2013-01-17 18:50:00,15.9,10.6,30.44,NW,321,0.0,0.0,79,0.00,,OVC080,0.00,VWS V14.01,2013-01-18 00:50:00,
2013-01-17 19:00:00,16.1,10.8,30.43,NW,321,0.0,0.0,79,0.00,,OVC080,0.00,VWS V14.01,2013-01-18 01:00:00,
2013-01-17 19:10:00,16.1,11.0,30.44,NW,321,0.0,0.0,80,0.00,,BKN120,0.00,VWS V14.01,2013-01-18 01:10:00,
2013-01-17 19:20:00,16.1,10.8,30.44,West,265,0.0,0.0,79,0.00,,BKN120,0.00,VWS V14.01,2013-01-18 01:20:00,
2013-01-17 19:30:00,16.2,11.1,30.43,West,265,0.0,0.0,80,0.00,,BKN120,0.00,VWS V14.01,2013-01-18 01:30:00,
2013-01-17 19:40:00,16.4,11.3,30.43,West,265,0.0,0.0,80,0.00,,BKN120,0.00,VWS V14.01,2013-01-18 01:40:00,
2013-01-17 19:50:00,16.5,11.1,30.42,West,265,0.0,0.0,79,0.00,,BKN090,0.00,VWS V14.01,2013-01-18 01:50:00,
2013-01-17 20:00:00,16.6,11.2,30.42,West,265,0.0,0.0,79,0.00,,BKN090,0.00,VWS V14.01,2013-01-18 02:00:00,
2013-01-17 20:10:00,16.3,10.7,30.41,North,360,0.0,0.0,78,0.00,,BKN120,0.00,VWS V14.01,2013-01-18 02:10:00,
2013-01-17 20:20:00,16.2,10.6,30.42,North,360,0.0,0.0,78,0.00,,BKN120,0.00,VWS V14.01,2013-01-18 02:20:00,
2013-01-17 20:30:00,16.2,10.6,30.41,SW,221,0.0,0.0,78,0.00,,BKN120,0.00,VWS V14.01,2013-01-18 02:30:00,
2013-01-17 20:40:00,16.1,10.5,30.40,SSW,207,3.0,3.1,78,0.00,,BKN120,0.00,VWS V14.01,2013-01-18 02:40:00,
2013-01-17 20:50:00,16.1,10.8,30.40,SSW,207,0.0,3.1,79,0.00,,OVC100,0.00,VWS V14.01,2013-01-18 02:50:00,
2013-01-17 21:00:00,16.2,10.6,30.40,SSW,207,0.0,0.0,78,0.00,,OVC100,0.00,VWS V14.01,2013-01-18 03:00:00,
2013-01-17 21:10:00,16.0,10.6,30.39,East,86,2.0,3.1,79,0.00,,BKN110,0.00,VWS V14.01,2013-01-18 03:10:00,
2013-01-17 21:20:00,16.0,11.2,30.38,East,86,3.0,5.2,81,0.00,,BKN110,0.00,VWS V14.01,2013-01-18 03:20:00,
2013-01-17 21:30:00,16.0,11.2,30.38,East,87,5.0,5.2,81,0.00,,SCT090,0.00,VWS V14.01,2013-01-18 03:30:00,
2013-01-17 21:40:00,15.9,11.4,30.38,East,87,2.0,5.2,82,0.00,,SCT090,0.00,VWS V14.01,2013-01-18 03:40:00,
2013-01-17 21:50:00,16.0,11.5,30.37,East,87,5.0,5.2,82,0.00,,SCT100,0.00,VWS V14.01,2013-01-18 03:50:00,
2013-01-17 22:00:00,16.0,11.5,30.36,SE,125,5.0,7.3,82,0.00,,SCT100,0.00,VWS V14.01,2013-01-18 04:00:00,
2013-01-17 22:10:00,16.1,11.6,30.36,SE,133,5.0,6.3,82,0.00,,SCT022,0.00,VWS V14.01,2013-01-18 04:10:00,
2013-01-17 22:20:00,16.0,11.5,30.34,ESE,113,7.0,8.4,82,0.00,,SCT022,0.00,VWS V14.01,2013-01-18 04:20:00,
2013-01-17 22:30:00,16.1,11.6,30.34,SE,130,6.0,9.4,82,0.00,,SCT120,0.00,VWS V14.01,2013-01-18 04:30:00,
2013-01-17 22:40:00,16.2,11.7,30.32,ESE,121,7.0,10.5,82,0.00,,SCT120,0.00,VWS V14.01,2013-01-18 04:40:00,
2013-01-17 22:50:00,16.3,12.1,30.32,ESE,113,7.0,11.5,83,0.00,,OVC045,0.00,VWS V14.01,2013-01-18 04:50:00,
2013-01-17 23:00:00,16.6,12.4,30.31,ESE,120,10.0,10.5,83,0.00,,OVC045,0.00,VWS V14.01,2013-01-18 05:00:00,
2013-01-17 23:10:00,16.8,12.5,30.31,SE,126,7.0,11.5,83,0.00,,OVC041,0.00,VWS V14.01,2013-01-18 05:10:00,
2013-01-17 23:20:00,17.0,12.7,30.30,ESE,117,10.0,12.6,83,0.00,,OVC041,0.00,VWS V14.01,2013-01-18 05:20:00,
2013-01-17 23:30:00,17.2,12.9,30.29,ESE,106,11.0,12.6,83,0.00,,OVC039,0.00,VWS V14.01,2013-01-18 05:30:00,
2013-01-17 23:40:00,17.5,13.5,30.29,ESE,113,9.0,11.5,84,0.00,,OVC039,0.00,VWS V14.01,2013-01-18 05:40:00,
2013-01-17 23:50:00,17.6,13.6,30.28,ESE,103,8.0,12.6,84,0.00,,OVC033,0.00,VWS V14.01,2013-01-18 05:50:00,